• Join FlightAware (Why Join?)
  • Login
  • US Flag 
09:02PM EST


 

Airport Tracker/Info


-or-


 

Live Flight TrackerFlight Track Log ✈ GJS3618 ✈ 14-Apr-2013 ✈ KORD - KALB

Flight Track Log - Related Links

Times and Time Zones

All times are in EDT time to prevent confusion due to time zone crossing. See the GJS3618 flight status page for this flight to view local times or setup timezone preferences in your user account.

Time Position Orientation Groundspeed Altitude Reporting Facility
EDT Latitude Longitude Course Direction KTS MPH feet Rate Location/Type
09:08AM 42.0167 -87.7833 75° East 229 264 4,500  Level Chicago TRACON
09:10AM 42.0708 -87.5828 70° East 320 368 9,700 2,280 Climbing Chicago Center
09:11AM 42.1167 -87.4689 61° Northeast 347 399 11,500 1,860 Climbing Chicago Center
09:12AM 42.1667 -87.3425 62° Northeast 378 435 13,600 2,100 Climbing Chicago Center
09:13AM 42.2609 -87.0673 66° East  Level FlightAware Approximate
09:13AM 42.1733 -87.1892 87° East 406 467 15,900  Level Chicago Center
09:14AM 42.1811 -87.0314 86° East 417 480 17,900 2,040 Climbing Chicago Center
09:15AM 42.1889 -86.8686 86° East 433 498 20,100 1,980 Climbing Chicago Center
09:16AM 42.1978 -86.7069 86° East 434 499 22,000 1,860 Climbing Chicago Center
09:18AM 42.2075 -86.5161 86° East 447 514 24,000 1,620 Climbing Chicago Center
09:19AM 42.2158 -86.3453 86° East 455 524 25,400 1,200 Climbing Chicago Center
09:20AM 42.2228 -86.1672 87° East 471 542 26,500 1,140 Climbing Chicago Center
09:21AM 42.2314 -85.9856 86° East 481 554 27,800 1,260 Climbing Chicago Center
09:22AM 42.2392 -85.7825 87° East 486 559 29,100 1,140 Climbing Chicago Center
09:23AM 42.2472 -85.5983 87° East 494 568 30,200 1,020 Climbing Chicago Center
09:24AM 42.2539 -85.4131 87° East 498 573 31,300 1,020 Climbing Chicago Center
09:25AM 42.2608 -85.2233 87° East 506 582 32,400 1,020 Climbing Chicago Center
09:26AM 42.2686 -85.0339 87° East 510 587 33,500 960 Climbing Chicago Center
09:27AM 42.2753 -84.8453 87° East 507 583 34,500 900 Climbing Chicago Center
09:28AM 42.2939 -84.6594 82° East 499 574 35,400 960 Climbing Chicago Center
09:29AM 42.3139 -84.4367 83° East 501 577 36,500 780 Climbing Chicago Center
09:30AM 42.3303 -84.2497 83° East 502 578 37,000 240 Climbing Chicago Center
09:31AM 42.3450 -84.0606 84° East 506 582 37,000  Level Chicago Center
09:32AM 42.3619 -83.8706 83° East 511 588 37,000 240 Level Chicago Center
09:33AM 42.3794 -83.6611 83° East 501 577 37,500 600 Climbing Cleveland Center
09:34AM 42.3922 -83.4903 84° East 501 577 38,300 660 Climbing Cleveland Center
09:35AM 42.4056 -83.2828 85° East 501 577 38,900 300 Climbing Cleveland Center
09:36AM 42.4200 -83.1089 84° East 507 583 39,000  Climbing Cleveland Center
09:37AM 42.4344 -82.9153 84° East 513 590 39,000  Level Cleveland Center
09:38AM 42.4486 -82.7217 84° East 513 590 39,000  Level Cleveland Center
09:39AM 42.4625 -82.5281 84° East 518 596 39,000  Level Cleveland Center
09:40AM 42.4761 -82.3369 84° East 518 596 39,000  Level Cleveland Center
09:41AM 42.4892 -82.1486 85° East 513 590 39,000  Level Cleveland Center
09:42AM 42.5000 -81.9575 86° East 513 590 39,000  Level Cleveland Center
09:43AM 42.5167 -81.7494 84° East 507 583 39,000  Level Cleveland Center
09:44AM 42.5267 -81.5806 85° East 507 583 39,000  Level Cleveland Center
09:45AM 42.5408 -81.3892 84° East 507 583 39,000  Level Cleveland Center
09:46AM 42.5503 -81.1975 86° East 507 583 39,000  Level Cleveland Center
09:48AM 42.5725 -80.8086 85° East 518 596 39,000  Level Cleveland Center
09:49AM 42.5831 -80.6114 86° East 513 590 39,000  Level Cleveland Center
09:50AM 42.5956 -80.3997 85° East 513 590 39,000  Level Cleveland Center
09:51AM 42.6056 -80.1967 86° East 523 602 39,000  Level Cleveland Center
09:52AM 42.6131 -80.0019 87° East 522 601 39,000  Level Cleveland Center
09:53AM 42.6264 -79.8017 85° East 522 601 39,000  Level Cleveland Center
09:54AM 42.6375 -79.6039 86° East 522 601 39,000  Level Cleveland Center
09:55AM 42.6439 -79.4061 87° East 522 601 39,000  Level Cleveland Center
09:56AM 42.6542 -79.2083 86° East 522 601 39,000  Level Cleveland Center
09:57AM 42.6600 -79.0133 88° East 522 601 39,000 -180 Level Cleveland Center
09:58AM 42.6697 -78.8156 86° East 516 594 38,700 -540 Descending Cleveland Center
09:59AM 42.6750 -78.6206 88° East 516 594 38,000 -720 Descending Cleveland Center
10:00AM 42.6819 -78.4283 87° East 516 594 37,300 -720 Descending Cleveland Center
10:01AM 42.6886 -78.2358 87° East 516 594 36,600 -720 Descending Cleveland Center
10:02AM 42.6950 -78.0464 87° East 510 587 35,900 -780 Descending Cleveland Center
10:03AM 42.7011 -77.8539 87° East 510 587 35,100 -840 Descending Cleveland Center
10:04AM 42.7075 -77.6869 87° East 505 581 34,300 -1,080 Descending Cleveland Center
10:06AM 42.7167 -77.2225 88° East 513 590 31,500 -1,260 Descending Boston Center
10:07AM 42.7225 -77.0333 88° East 508 585 30,100 -1,260 Descending Boston Center
10:08AM 42.7256 -76.8469 89° East 497 572 29,000 -600 Descending Boston Center
10:09AM 42.7286 -76.6578 89° East 492 566 29,000  Level Boston Center
10:10AM 42.7333 -76.4686 88° East 498 573 29,000  Level Boston Center
10:11AM 42.7358 -76.2736 89° East 503 579 29,000  Level Boston Center
10:12AM 42.7403 -76.0789 88° East 508 585 29,000 -600 Level Boston Center
10:13AM 42.7422 -75.8839 89° East 514 592 27,900 -1,920 Descending Boston Center
10:14AM 42.7436 -75.6917 89° East 514 592 25,200 -2,940 Descending Boston Center
10:15AM 42.7475 -75.4797 88° East 514 592 22,000 -2,940 Descending Boston Center
10:16AM 42.7458 -75.2986 91° East 503 579 19,300 -2,700 Descending Boston Center
10:17AM 42.7503 -75.1206 88° East 489 563 16,700 -2,700 Descending Boston Center
10:18AM 42.7497 -74.9567 90° East 462 532 14,000 -2,760 Descending Boston Center
10:19AM 42.7514 -74.8889 88° East 402 463 12,900 -2,400 Descending Boston Center
10:19AM 42.7508 -74.8067 90° East 420 483 11,600 -1,920 Descending Boston Center
10:20AM 42.7519 -74.7617 88° East 385 443 11,200 -600 Descending Boston Center
10:20AM 42.7497 -74.6597 92° East 391 450 11,000 -240 Descending Boston Center
10:21AM 42.7506 -74.6172 88° East 378 435 11,000  Level Boston Center
10:21AM 42.7522 -74.5269 89° East 382 440 11,000 -240 Level Boston Center
10:22AM 42.7661 -74.4567 75° East 356 410 10,800 -540 Descending Boston Center
10:22AM 42.7817 -74.3947 71° East 348 400 10,500 -840 Descending Boston Center
10:23AM 42.7969 -74.3500 65° Northeast 288 331 10,000 -1,380 Descending Boston Center
10:23AM 42.8083 -74.3022 72° East 304 350 9,200 -1,680 Descending Boston Center
10:24AM 42.8239 -74.2433 70° East 287 330 8,300 -1,680 Descending Boston Center
10:24AM 42.8247 -74.1811 89° East 288 331 7,500 -1,620 Descending Boston Center
10:25AM 42.8256 -74.1331 89° East 296 341 6,700 -1,620 Descending Boston Center
10:25AM 42.8306 -74.0736 83° East 288 331 5,900 -1,620 Descending Boston Center
10:26AM 42.8311 -74.0228 89° East 290 334 5,100 -960 Descending Boston Center
10:26AM 42.8361 -73.9633 83° East 288 331 5,000 -120 Descending Boston Center
10:27AM 42.8347 -73.9125 92° East 285 328 5,000  Level Boston Center
10:27AM 42.8375 -73.8586 86° East 288 331 5,000 -300 Level Boston Center
10:28AM 42.8361 -73.8075 92° East 268 308 4,700 -840 Descending Boston Center
10:28AM 42.8386 -73.7594 86° East 280 322 4,200 -900 Descending Boston Center
10:29AM 42.8392 -73.7311 88° East 224 258 3,900 -240 Descending Boston Center
10:29AM 42.8397 -73.6831 89° East 243 280 4,000 60 Climbing Boston Center
10:30AM 42.8400 -73.6436 89° East 206 237 4,000  Level Boston Center
10:30AM 42.8406 -73.5981 89° East 204 235 4,000  Level Boston Center
10:31AM 42.8242 -73.5694 128° Southeast 194 223 4,000  Level Boston Center
10:31AM 42.8078 -73.5494 138° Southeast 182 209 4,000 -240 Level Boston Center
10:32AM 42.7806 -73.5575 192° South 176 203 3,800 -720 Descending Boston Center
10:32AM 42.7697 -73.5828 240° Southwest 115 132 3,300 -900 Descending Boston Center
10:33AM 42.7675 -73.6139 264° West 155 178 2,900 -720 Descending Boston Center
10:33AM 42.7650 -73.6364 261° West 135 155 2,600 -720 Descending Boston Center
10:34AM 42.7606 -73.6731 261° West 160 184 2,200 -780 Descending Boston Center
10:35AM 42.7558 -73.7181 262° West 129 148 1,500 -780 Descending Boston Center